createdAt,value
2019-05-06T00:02:21.448Z,6.29
2019-05-06T00:04:48.331Z,6.21
2019-05-06T00:07:14.976Z,6.28
2019-05-06T00:09:44.077Z,6.29
2019-05-06T00:12:12.044Z,6.00
2019-05-06T00:14:38.937Z,6.24
2019-05-06T00:17:05.933Z,6.15
2019-05-06T00:19:34.126Z,6.23
2019-05-06T00:22:01.017Z,6.26
2019-05-06T00:24:29.724Z,5.84
2019-05-06T00:27:14.117Z,5.75
2019-05-06T00:29:43.903Z,5.90
2019-05-06T00:32:11.866Z,6.05
2019-05-06T00:34:38.760Z,6.12
2019-05-06T00:37:07.411Z,6.13
2019-05-06T00:39:36.016Z,5.84
2019-05-06T00:42:04.929Z,5.77
2019-05-06T00:44:32.139Z,5.81
2019-05-06T00:46:58.882Z,5.89
2019-05-06T00:49:25.525Z,5.72
2019-05-06T00:51:52.291Z,5.43
2019-05-06T00:54:24.763Z,5.30
2019-05-06T00:56:54.138Z,5.17
2019-05-06T00:59:21.104Z,5.36
2019-05-06T01:01:48.089Z,5.46
2019-05-06T01:04:15.090Z,5.41
2019-05-06T01:06:43.898Z,5.47
2019-05-06T01:09:14.088Z,5.21
2019-05-06T01:11:41.545Z,4.86
2019-05-06T01:14:10.211Z,4.63
2019-05-06T01:16:37.192Z,4.83
2019-05-06T01:19:04.667Z,5.08
2019-05-06T01:21:34.100Z,5.19
2019-05-06T01:24:00.736Z,5.25
2019-05-06T01:26:27.847Z,5.23
2019-05-06T01:28:56.331Z,5.23
2019-05-06T01:31:24.692Z,5.27
2019-05-06T01:33:53.533Z,5.04
2019-05-06T01:36:21.226Z,4.72
2019-05-06T01:38:54.024Z,4.44
2019-05-06T01:41:24.383Z,4.57
2019-05-06T01:43:51.609Z,4.65
2019-05-06T01:46:18.777Z,4.82
2019-05-06T01:48:48.080Z,4.97
2019-05-06T01:51:16.899Z,4.87
2019-05-06T01:53:44.849Z,4.70
2019-05-06T01:56:11.860Z,4.59
2019-05-06T01:58:38.731Z,4.56
2019-05-06T02:01:05.883Z,4.54
2019-05-06T02:03:34.701Z,4.55
2019-05-06T02:06:01.691Z,4.68
2019-05-06T02:08:28.872Z,4.81
2019-05-06T02:10:55.725Z,4.69
2019-05-06T02:13:23.798Z,4.50
2019-05-06T02:15:51.010Z,4.72
2019-05-06T02:18:19.715Z,4.74
2019-05-06T02:20:47.734Z,4.71
2019-05-06T02:23:16.460Z,4.47
2019-05-06T02:25:45.083Z,4.38
2019-05-06T02:28:11.886Z,4.16
2019-05-06T02:30:46.919Z,4.02
2019-05-06T02:33:19.418Z,4.12
2019-05-06T02:35:57.211Z,4.11
2019-05-06T02:38:39.131Z,4.26
2019-05-06T02:40:57.439Z,3.98
2019-05-06T02:43:25.557Z,4.07
2019-05-06T02:45:53.237Z,3.76
2019-05-06T02:48:38.675Z,3.72
2019-05-06T02:51:07.711Z,3.82
2019-05-06T02:53:34.717Z,3.93
2019-05-06T02:56:04.127Z,4.02
2019-05-06T02:58:33.020Z,4.11
2019-05-06T03:01:03.199Z,4.12
2019-05-06T03:03:28.089Z,4.01
2019-05-06T03:05:54.757Z,3.90
2019-05-06T03:08:23.698Z,3.73
2019-05-06T03:10:53.068Z,3.88
2019-05-06T03:13:19.198Z,3.87
2019-05-06T03:15:46.139Z,4.03
2019-05-06T03:18:14.837Z,3.91
2019-05-06T03:20:45.139Z,3.97
2019-05-06T03:23:16.478Z,3.75
2019-05-06T03:25:45.153Z,3.84
2019-05-06T03:28:13.286Z,3.86
2019-05-06T03:30:45.205Z,3.79
2019-05-06T03:35:56.464Z,4.14
2019-05-06T03:38:06.347Z,4.22
2019-05-06T03:40:36.655Z,4.26
2019-05-06T03:43:03.000Z,4.30
2019-05-06T03:45:48.189Z,4.27
2019-05-06T03:48:16.968Z,4.12
2019-05-06T03:50:44.129Z,4.16
2019-05-06T03:53:13.795Z,4.27
2019-05-06T03:55:46.527Z,4.24
2019-05-06T03:58:13.375Z,4.25
2019-05-06T04:00:43.797Z,4.23
2019-05-06T04:03:13.763Z,4.18
2019-05-06T04:05:39.531Z,4.27
2019-05-06T04:08:07.081Z,3.98
2019-05-06T04:10:36.974Z,4.17
2019-05-06T04:13:04.141Z,3.79
2019-05-06T04:15:34.218Z,3.87
2019-05-06T04:18:08.862Z,3.79
2019-05-06T04:20:43.706Z,3.67
2019-05-06T04:23:15.489Z,3.82
2019-05-06T04:25:47.307Z,3.92
2019-05-06T04:28:16.147Z,3.85
2019-05-06T04:30:43.039Z,3.81
2019-05-06T04:33:14.120Z,3.69
2019-05-06T04:35:39.005Z,3.72
2019-05-06T04:38:05.752Z,3.73
2019-05-06T04:40:33.715Z,3.91
2019-05-06T04:43:03.370Z,3.84
2019-05-06T04:45:29.212Z,4.32
2019-05-06T04:47:56.136Z,4.59
2019-05-06T04:50:24.236Z,4.74
2019-05-06T04:53:05.398Z,6.32
2019-05-06T04:55:34.151Z,7.57
2019-05-06T04:58:04.021Z,8.49
2019-05-06T05:00:33.339Z,8.94
2019-05-06T05:03:02.859Z,8.87
2019-05-06T05:05:29.201Z,9.40
2019-05-06T05:07:55.984Z,9.49
2019-05-06T05:10:27.808Z,8.72
2019-05-06T05:12:57.930Z,9.27
2019-05-06T05:15:43.716Z,10.13
2019-05-06T05:18:18.630Z,11.10
2019-05-06T05:20:46.732Z,10.74
2019-05-06T05:23:13.956Z,10.44
2019-05-06T05:25:42.545Z,11.19
2019-05-06T05:28:10.408Z,10.32
2019-05-06T05:30:37.775Z,9.67
2019-05-06T05:33:04.731Z,11.01
2019-05-06T05:35:32.182Z,11.76
2019-05-06T05:37:59.437Z,12.24
2019-05-06T05:40:27.476Z,11.57
2019-05-06T05:42:56.328Z,11.20
2019-05-06T05:45:23.429Z,12.17
2019-05-06T05:47:52.265Z,12.62
2019-05-06T05:50:22.831Z,12.66
2019-05-06T05:52:51.977Z,13.45
2019-05-06T05:55:21.469Z,14.11
2019-05-06T05:57:49.216Z,12.71
2019-05-06T06:00:18.099Z,12.54
2019-05-06T06:02:45.713Z,13.34
2019-05-06T06:05:13.485Z,12.21
2019-05-06T06:07:42.214Z,11.46
2019-05-06T06:10:17.954Z,10.72
2019-05-06T06:12:46.679Z,10.37
2019-05-06T06:15:32.805Z,10.46
2019-05-06T06:18:18.665Z,10.60
2019-05-06T06:20:48.302Z,10.61
2019-05-06T06:23:17.574Z,9.88
2019-05-06T06:25:46.756Z,9.58
2019-05-06T06:28:14.664Z,9.92
2019-05-06T06:30:58.775Z,10.20
2019-05-06T06:33:26.797Z,10.13
2019-05-06T06:35:56.541Z,10.21
2019-05-06T06:38:25.447Z,9.96
2019-05-06T06:40:55.501Z,9.94
2019-05-06T06:43:22.996Z,10.35
2019-05-06T06:45:49.984Z,10.75
2019-05-06T06:48:17.047Z,10.69
2019-05-06T06:50:45.190Z,10.82
2019-05-06T06:53:12.381Z,10.53
2019-05-06T06:55:42.576Z,10.61
2019-05-06T06:58:23.837Z,10.84
2019-05-06T07:00:53.386Z,11.03
2019-05-06T07:03:25.063Z,10.99
2019-05-06T07:05:59.641Z,11.54
2019-05-06T07:08:34.885Z,13.15
2019-05-06T07:10:55.488Z,14.74
2019-05-06T07:13:23.203Z,16.28
2019-05-06T07:15:51.979Z,18.09
2019-05-06T07:18:19.086Z,18.31
2019-05-06T07:21:03.302Z,17.93
2019-05-06T07:23:33.142Z,18.79
2019-05-06T07:26:02.852Z,19.69
2019-05-06T07:28:29.391Z,18.96
2019-05-06T07:30:56.384Z,17.06
2019-05-06T07:33:23.214Z,14.95
2019-05-06T07:35:52.637Z,15.25
2019-05-06T07:38:18.813Z,14.25
2019-05-06T07:40:47.494Z,14.64
2019-05-06T07:43:33.767Z,14.51
2019-05-06T07:46:18.559Z,15.15
2019-05-06T07:48:45.628Z,16.05
2019-05-06T07:51:12.544Z,17.02
2019-05-06T07:53:40.114Z,15.70
2019-05-06T07:56:07.058Z,17.81
2019-05-06T07:58:33.903Z,18.75
2019-05-06T08:01:02.639Z,17.57
2019-05-06T08:03:29.295Z,18.01
2019-05-06T08:05:58.771Z,17.75
2019-05-06T08:08:25.988Z,16.94
2019-05-06T08:10:52.965Z,17.45
2019-05-06T08:13:22.475Z,18.68
2019-05-06T08:15:48.729Z,18.35
2019-05-06T08:18:15.636Z,16.45
2019-05-06T08:20:42.822Z,17.05
2019-05-06T08:23:17.409Z,16.71
2019-05-06T08:25:46.045Z,15.22
2019-05-06T08:28:13.385Z,15.16
2019-05-06T08:30:42.867Z,15.18
2019-05-06T08:33:09.475Z,16.35
2019-05-06T08:35:36.299Z,15.80
2019-05-06T08:38:03.570Z,15.75
2019-05-06T08:40:31.804Z,16.46
2019-05-06T08:42:59.205Z,16.96
2019-05-06T08:45:26.206Z,18.06
2019-05-06T08:47:52.993Z,16.73
2019-05-06T08:50:24.386Z,16.01
2019-05-06T08:52:56.207Z,16.51
2019-05-06T08:55:32.575Z,17.79
2019-05-06T08:57:59.720Z,18.34
2019-05-06T09:00:27.182Z,18.96
2019-05-06T09:02:54.058Z,17.55
2019-05-06T09:05:22.351Z,17.04
2019-05-06T09:07:49.262Z,18.09
2019-05-06T09:10:16.290Z,17.52
2019-05-06T09:12:43.339Z,15.82
2019-05-06T09:15:12.430Z,15.90
2019-05-06T09:17:38.748Z,15.25
2019-05-06T09:20:05.647Z,15.36
2019-05-06T09:22:32.761Z,15.74
2019-05-06T09:24:59.408Z,15.46
2019-05-06T09:27:28.036Z,16.09
2019-05-06T09:29:55.142Z,16.69
2019-05-06T09:32:24.048Z,17.23
2019-05-06T09:34:55.500Z,17.59
2019-05-06T09:37:23.937Z,17.97
2019-05-06T09:39:53.215Z,17.46
2019-05-06T09:42:19.880Z,18.11
2019-05-06T09:44:50.285Z,18.86
2019-05-06T09:47:22.945Z,19.00
2019-05-06T09:49:49.789Z,19.16
2019-05-06T09:52:16.895Z,18.33
2019-05-06T09:54:48.456Z,19.42
2019-05-06T09:57:26.462Z,19.39
2019-05-06T09:59:53.439Z,18.05
2019-05-06T10:02:22.994Z,17.33
2019-05-06T10:04:52.213Z,16.93
2019-05-06T10:07:19.461Z,16.73
2019-05-06T10:09:46.397Z,16.98
2019-05-06T10:12:14.464Z,18.25
2019-05-06T10:14:43.257Z,19.20
2019-05-06T10:17:13.006Z,18.34
2019-05-06T10:19:39.409Z,17.65
2019-05-06T10:22:06.173Z,15.91
2019-05-06T10:24:33.100Z,16.03
2019-05-06T10:26:59.841Z,15.55
2019-05-06T10:29:35.234Z,16.25
2019-05-06T10:32:06.805Z,15.85
2019-05-06T10:34:33.594Z,16.31
2019-05-06T10:37:15.270Z,16.71
2019-05-06T10:39:38.585Z,17.89
2019-05-06T10:42:13.474Z,19.13
2019-05-06T10:44:48.055Z,19.00
2019-05-06T10:47:14.923Z,18.83
2019-05-06T10:49:42.262Z,19.08
2019-05-06T10:52:12.826Z,19.43
2019-05-06T10:54:42.125Z,17.01
2019-05-06T10:57:26.942Z,17.03
2019-05-06T10:59:55.061Z,16.96
2019-05-06T11:02:27.690Z,17.00
2019-05-06T11:04:55.247Z,16.67
2019-05-06T11:07:31.806Z,16.57
2019-05-06T11:09:53.274Z,16.29
2019-05-06T11:12:23.432Z,16.11
2019-05-06T11:14:53.260Z,16.29
2019-05-06T11:17:22.718Z,16.37
2019-05-06T11:19:50.238Z,16.25
2019-05-06T11:22:21.198Z,16.47
2019-05-06T11:24:47.412Z,16.03
2019-05-06T11:27:27.724Z,16.26
2019-05-06T11:29:46.107Z,16.16
2019-05-06T11:32:27.194Z,15.74
2019-05-06T11:35:03.882Z,15.56
2019-05-06T11:37:45.979Z,15.47
2019-05-06T11:40:03.521Z,15.62
2019-05-06T11:42:35.055Z,15.56
2019-05-06T11:45:03.720Z,15.29
2019-05-06T11:47:32.443Z,15.51
2019-05-06T11:50:02.503Z,15.42
2019-05-06T11:52:29.841Z,15.52
2019-05-06T11:54:58.819Z,15.47
2019-05-06T11:57:27.328Z,15.70
2019-05-06T11:59:55.401Z,15.92
2019-05-06T12:02:24.473Z,16.18
2019-05-06T12:04:52.774Z,16.12
2019-05-06T12:07:24.150Z,16.46
2019-05-06T12:09:50.008Z,16.90
2019-05-06T12:12:17.581Z,16.88
2019-05-06T12:14:45.163Z,16.31
2019-05-06T12:17:12.907Z,15.87
2019-05-06T12:19:40.563Z,15.50
2019-05-06T12:22:12.461Z,15.24
2019-05-06T12:24:39.505Z,16.04
2019-05-06T12:27:07.709Z,16.89
2019-05-06T12:29:38.016Z,16.85
2019-05-06T12:32:24.956Z,16.34
2019-05-06T12:34:52.505Z,16.44
2019-05-06T12:37:22.251Z,16.46
2019-05-06T12:39:53.344Z,16.85
2019-05-06T12:42:23.183Z,17.03
2019-05-06T12:44:52.995Z,17.59
2019-05-06T12:47:29.227Z,17.02
2019-05-06T12:49:57.344Z,17.05
2019-05-06T12:52:25.131Z,16.96
2019-05-06T12:54:56.305Z,16.53
2019-05-06T12:57:23.655Z,16.01
2019-05-06T12:59:53.152Z,16.32
2019-05-06T13:02:23.549Z,16.27
2019-05-06T13:04:57.624Z,15.91
2019-05-06T13:07:21.999Z,15.97
2019-05-06T13:09:49.685Z,15.55
2019-05-06T13:12:19.196Z,15.65
2019-05-06T13:14:46.615Z,15.70
2019-05-06T13:17:15.879Z,15.43
2019-05-06T13:19:43.104Z,15.34
2019-05-06T13:22:13.447Z,15.01
2019-05-06T13:24:41.263Z,15.25
2019-05-06T13:27:12.596Z,15.43
2019-05-06T13:29:39.877Z,15.40
2019-05-06T13:32:09.576Z,15.24
2019-05-06T13:34:37.034Z,15.23
2019-05-06T13:37:04.732Z,15.72
2019-05-06T13:39:33.255Z,15.72
2019-05-06T13:42:00.969Z,15.83
2019-05-06T13:44:28.263Z,16.02
2019-05-06T13:46:55.565Z,15.47
2019-05-06T13:49:27.582Z,15.40
2019-05-06T13:52:08.342Z,15.40
2019-05-06T13:54:35.801Z,15.46
2019-05-06T13:57:03.253Z,15.34
2019-05-06T13:59:34.682Z,15.51
2019-05-06T14:02:18.928Z,15.56
2019-05-06T14:04:47.022Z,15.60
2019-05-06T14:07:14.990Z,15.74
2019-05-06T14:09:43.704Z,15.41
2019-05-06T14:12:11.740Z,15.48
2019-05-06T14:14:39.173Z,15.92
2019-05-06T14:17:06.756Z,16.27
2019-05-06T14:19:34.747Z,16.48
2019-05-06T14:22:02.964Z,16.25
2019-05-06T14:24:32.800Z,15.97
2019-05-06T14:27:02.646Z,16.04
2019-05-06T14:29:32.991Z,15.62
2019-05-06T14:32:02.254Z,15.59
2019-05-06T14:34:29.768Z,15.52
2019-05-06T14:36:56.897Z,15.39
2019-05-06T14:39:43.423Z,15.23
2019-05-06T14:41:56.718Z,15.23
2019-05-06T14:44:24.465Z,14.96
2019-05-06T14:47:05.812Z,15.02
2019-05-06T14:49:34.295Z,15.11
2019-05-06T14:52:02.642Z,15.20
2019-05-06T14:54:33.012Z,15.10
2019-05-06T14:57:04.914Z,15.10
2019-05-06T14:59:33.034Z,15.10
2019-05-06T15:02:02.477Z,14.93
2019-05-06T15:04:32.266Z,14.91
2019-05-06T15:06:59.260Z,14.96
2019-05-06T15:09:27.134Z,14.80
2019-05-06T15:11:55.149Z,15.03
2019-05-06T15:14:22.849Z,15.12
2019-05-06T15:16:52.778Z,14.95
2019-05-06T15:19:22.565Z,14.93
2019-05-06T15:21:49.505Z,14.92
2019-05-06T15:24:20.824Z,14.86
2019-05-06T15:26:45.963Z,14.75
2019-05-06T15:29:12.849Z,14.48
2019-05-06T15:31:42.084Z,14.76
2019-05-06T15:34:12.962Z,14.66
2019-05-06T15:36:44.334Z,14.63
2019-05-06T15:39:13.103Z,14.71
2019-05-06T15:41:42.610Z,14.78
2019-05-06T15:44:09.484Z,14.68
2019-05-06T15:46:37.753Z,14.85
2019-05-06T15:49:04.748Z,14.93
2019-05-06T15:51:34.737Z,14.75
2019-05-06T15:54:02.695Z,14.83
2019-05-06T15:56:32.751Z,14.75
2019-05-06T15:58:59.659Z,14.79
2019-05-06T16:01:26.619Z,14.71
2019-05-06T16:03:53.457Z,14.68
2019-05-06T16:06:22.806Z,14.77
2019-05-06T16:08:49.632Z,14.54
2019-05-06T16:11:16.634Z,14.62
2019-05-06T16:13:45.094Z,14.47
2019-05-06T16:16:12.332Z,14.51
2019-05-06T16:18:39.178Z,14.53
2019-05-06T16:21:06.159Z,14.42
2019-05-06T16:23:35.063Z,14.41
2019-05-06T16:26:03.013Z,14.25
2019-05-06T16:28:30.425Z,14.05
2019-05-06T16:30:57.422Z,13.92
2019-05-06T16:33:24.397Z,14.06
2019-05-06T16:35:52.362Z,14.10
2019-05-06T16:38:19.360Z,13.93
2019-05-06T16:40:45.890Z,13.93
2019-05-06T16:43:13.790Z,13.93
2019-05-06T16:45:42.837Z,14.02
2019-05-06T16:48:09.657Z,14.06
2019-05-06T16:50:36.619Z,14.13
2019-05-06T16:53:04.693Z,14.06
2019-05-06T16:55:52.704Z,13.94
2019-05-06T16:58:22.292Z,13.86
2019-05-06T17:00:52.384Z,13.84
2019-05-06T17:03:23.135Z,13.74
2019-05-06T17:06:04.027Z,13.69
2019-05-06T17:08:35.957Z,13.62
2019-05-06T17:10:59.684Z,13.27
2019-05-06T17:13:26.668Z,13.48
2019-05-06T17:15:53.882Z,13.49
2019-05-06T17:18:22.599Z,13.58
2019-05-06T17:20:49.987Z,13.58
2019-05-06T17:23:16.941Z,13.41
2019-05-06T17:25:44.228Z,13.36
2019-05-06T17:28:15.817Z,13.39
2019-05-06T17:30:51.661Z,13.38
2019-05-06T17:33:33.541Z,13.40
2019-05-06T17:36:02.935Z,13.38
2019-05-06T17:38:32.203Z,13.32
2019-05-06T17:40:59.972Z,13.27
2019-05-06T17:43:27.146Z,13.17
2019-05-06T17:46:01.391Z,13.23
2019-05-06T17:48:29.278Z,13.11
2019-05-06T17:51:13.918Z,13.07
2019-05-06T17:53:42.991Z,13.05
2019-05-06T17:56:12.376Z,13.02
2019-05-06T17:58:39.159Z,12.91
2019-05-06T18:01:07.349Z,12.93
2019-05-06T18:03:34.535Z,12.87
2019-05-06T18:06:07.062Z,12.80
2019-05-06T18:08:30.172Z,12.74
2019-05-06T18:10:57.238Z,12.68
2019-05-06T18:13:23.982Z,12.62
2019-05-06T18:15:52.912Z,12.54
2019-05-06T18:18:21.469Z,12.49
2019-05-06T18:20:48.478Z,12.41
2019-05-06T18:23:15.297Z,12.32
2019-05-06T18:25:43.116Z,12.28
2019-05-06T18:28:12.125Z,12.19
2019-05-06T18:30:39.951Z,12.09
2019-05-06T18:33:07.067Z,12.12
2019-05-06T18:35:34.132Z,12.01
2019-05-06T18:38:02.962Z,11.99
2019-05-06T18:40:33.038Z,11.94
2019-05-06T18:42:58.988Z,11.81
2019-05-06T18:45:26.236Z,11.73
2019-05-06T18:47:53.217Z,11.74
2019-05-06T18:50:21.980Z,11.74
2019-05-06T18:52:52.823Z,11.61
2019-05-06T18:55:22.200Z,11.57
2019-05-06T18:57:48.440Z,11.56
2019-05-06T19:00:15.599Z,11.46
2019-05-06T19:02:42.459Z,11.41
2019-05-06T19:05:13.077Z,11.34
2019-05-06T19:07:40.137Z,11.34
2019-05-06T19:10:12.900Z,11.34
2019-05-06T19:12:41.544Z,11.26
2019-05-06T19:15:08.698Z,11.18
2019-05-06T19:17:36.009Z,11.16
2019-05-06T19:20:03.425Z,11.15
2019-05-06T19:22:32.300Z,11.13
2019-05-06T19:25:19.459Z,11.20
2019-05-06T19:27:46.638Z,11.14
2019-05-06T19:30:13.972Z,11.12
2019-05-06T19:32:43.304Z,11.15
2019-05-06T19:35:09.908Z,11.08
2019-05-06T19:37:38.524Z,11.02
2019-05-06T19:40:05.469Z,10.97
2019-05-06T19:42:43.670Z,10.94
2019-05-06T19:45:02.500Z,10.96
2019-05-06T19:47:31.960Z,10.92
2019-05-06T19:49:59.308Z,10.84
2019-05-06T19:52:26.092Z,10.93
2019-05-06T19:54:53.295Z,10.93
2019-05-06T19:57:20.188Z,10.81
2019-05-06T19:59:47.035Z,10.84
2019-05-06T20:02:14.409Z,10.83
2019-05-06T20:04:44.369Z,10.85
2019-05-06T20:07:22.846Z,10.94
2019-05-06T20:10:03.849Z,10.86
2019-05-06T20:12:43.462Z,10.91
2019-05-06T20:15:28.773Z,10.88
2019-05-06T20:17:56.671Z,10.80
2019-05-06T20:20:24.800Z,10.79
2019-05-06T20:22:52.013Z,10.82
2019-05-06T20:25:19.288Z,10.72
2019-05-06T20:27:47.020Z,10.69
2019-05-06T20:30:14.079Z,10.60
2019-05-06T20:32:42.523Z,10.62
2019-05-06T20:35:09.710Z,10.69
2019-05-06T20:37:36.483Z,10.63
2019-05-06T20:40:05.654Z,10.72
2019-05-06T20:42:32.812Z,10.62
2019-05-06T20:45:01.958Z,10.63
2019-05-06T20:47:31.510Z,10.57
2019-05-06T20:49:59.087Z,10.52
2019-05-06T20:52:26.226Z,10.59
2019-05-06T20:54:55.010Z,10.53
2019-05-06T20:57:23.083Z,10.55
2019-05-06T20:59:52.600Z,10.37
2019-05-06T21:02:25.027Z,10.33
2019-05-06T21:04:48.677Z,10.31
2019-05-06T21:07:15.886Z,10.32
2019-05-06T21:09:43.404Z,10.38
2019-05-06T21:12:10.781Z,10.35
2019-05-06T21:14:38.050Z,10.40
2019-05-06T21:17:05.105Z,10.37
2019-05-06T21:19:33.351Z,10.27
2019-05-06T21:22:02.201Z,10.36
2019-05-06T21:24:28.846Z,10.08
2019-05-06T21:26:55.992Z,10.32
2019-05-06T21:29:23.421Z,10.26
2019-05-06T21:31:50.391Z,10.31
2019-05-06T21:34:18.227Z,10.22
2019-05-06T21:36:45.080Z,10.16
2019-05-06T21:39:13.030Z,10.09
2019-05-06T21:41:42.482Z,10.10
2019-05-06T21:44:09.218Z,10.19
2019-05-06T21:46:36.438Z,10.16
2019-05-06T21:49:03.495Z,10.06
2019-05-06T21:51:32.727Z,10.03
2019-05-06T21:54:00.829Z,10.05
2019-05-06T21:56:31.925Z,10.00
2019-05-06T21:58:58.844Z,9.95
2019-05-06T22:01:26.115Z,9.87
2019-05-06T22:03:52.914Z,9.89
2019-05-06T22:06:22.429Z,9.89
2019-05-06T22:08:49.233Z,9.78
2019-05-06T22:11:16.086Z,9.70
2019-05-06T22:13:56.900Z,9.66
2019-05-06T22:16:12.633Z,9.49
2019-05-06T22:18:39.649Z,9.46
2019-05-06T22:21:23.379Z,9.32
2019-05-06T22:23:58.202Z,9.31
2019-05-06T22:26:25.388Z,9.24
2019-05-06T22:28:52.812Z,9.13
2019-05-06T22:31:23.903Z,9.05
2019-05-06T22:33:48.439Z,9.07
2019-05-06T22:36:15.559Z,9.10
2019-05-06T22:38:44.285Z,9.07
2019-05-06T22:41:11.783Z,9.00
2019-05-06T22:43:38.848Z,8.94
2019-05-06T22:46:05.635Z,9.01
2019-05-06T22:48:32.585Z,8.95
2019-05-06T22:50:59.522Z,8.98
2019-05-06T22:53:26.981Z,9.04
2019-05-06T22:55:55.918Z,8.99
2019-05-06T22:58:22.874Z,8.98
2019-05-06T23:00:53.530Z,8.93
2019-05-06T23:03:32.079Z,8.87
2019-05-06T23:05:59.942Z,8.88
2019-05-06T23:08:26.924Z,8.66
2019-05-06T23:10:54.052Z,8.54
2019-05-06T23:13:22.948Z,8.68
2019-05-06T23:15:52.377Z,8.59
2019-05-06T23:18:19.367Z,8.61
2019-05-06T23:20:46.629Z,8.45
2019-05-06T23:23:13.734Z,8.36
2019-05-06T23:25:43.447Z,8.43
2019-05-06T23:28:09.251Z,8.44
2019-05-06T23:30:36.185Z,8.48
2019-05-06T23:33:03.325Z,8.46
2019-05-06T23:35:30.152Z,8.49
2019-05-06T23:38:15.323Z,8.55
2019-05-06T23:41:00.294Z,8.50
2019-05-06T23:43:45.215Z,8.41
2019-05-06T23:46:32.345Z,8.36
2019-05-06T23:49:17.446Z,8.28
2019-05-06T23:52:02.737Z,8.23
2019-05-06T23:54:47.602Z,8.18
2019-05-06T23:57:13.531Z,8.06
2019-05-06T23:59:42.966Z,7.94
